sensor_id;sensor_type;location;lat;lon;timestamp;temperature;humidity
45319;DHT22;31057;48.498;32.260;2022-12-07T00:14:20;-1.50;99.90
45319;DHT22;31057;48.498;32.260;2022-12-07T00:16:25;-1.40;99.90
45319;DHT22;31057;48.498;32.260;2022-12-07T00:18:27;-1.40;99.90
45319;DHT22;31057;48.498;32.260;2022-12-07T00:20:29;-1.40;99.90
45319;DHT22;31057;48.498;32.260;2022-12-07T00:22:32;-1.40;99.90
45319;DHT22;31057;48.498;32.260;2022-12-07T00:24:34;-1.30;99.90
45319;DHT22;31057;48.498;32.260;2022-12-07T00:26:38;-1.40;99.90
45319;DHT22;31057;48.498;32.260;2022-12-07T00:28:41;-1.40;99.90
45319;DHT22;31057;48.498;32.260;2022-12-07T00:30:46;-1.40;99.90
45319;DHT22;31057;48.498;32.260;2022-12-07T00:32:48;-1.40;99.90
45319;DHT22;31057;48.498;32.260;2022-12-07T00:34:49;-1.40;99.90
45319;DHT22;31057;48.498;32.260;2022-12-07T00:36:51;-1.40;99.90
45319;DHT22;31057;48.498;32.260;2022-12-07T00:38:58;-1.30;99.90
45319;DHT22;31057;48.498;32.260;2022-12-07T00:41:05;-1.40;99.90
45319;DHT22;31057;48.498;32.260;2022-12-07T00:43:09;-1.50;99.90
45319;DHT22;31057;48.498;32.260;2022-12-07T00:45:11;-1.50;99.90
45319;DHT22;31057;48.498;32.260;2022-12-07T00:47:13;-1.50;99.90
45319;DHT22;31057;48.498;32.260;2022-12-07T00:49:15;-1.50;99.90
45319;DHT22;31057;48.498;32.260;2022-12-07T00:51:18;-1.50;99.90
45319;DHT22;31057;48.498;32.260;2022-12-07T00:53:21;-1.50;99.90
45319;DHT22;31057;48.498;32.260;2022-12-07T00:55:22;-1.50;99.90
45319;DHT22;31057;48.498;32.260;2022-12-07T00:57:24;-1.60;99.90
45319;DHT22;31057;48.498;32.260;2022-12-07T00:59:26;-1.50;99.90
45319;DHT22;31057;48.498;32.260;2022-12-07T01:01:34;-1.60;99.90
45319;DHT22;31057;48.498;32.260;2022-12-07T01:03:37;-1.60;99.90
45319;DHT22;31057;48.498;32.260;2022-12-07T01:05:40;-1.60;99.90
45319;DHT22;31057;48.498;32.260;2022-12-07T01:07:45;-1.60;99.90
45319;DHT22;31057;48.498;32.260;2022-12-07T01:09:48;-1.60;99.90
45319;DHT22;31057;48.498;32.260;2022-12-07T01:11:50;-1.60;99.90
45319;DHT22;31057;48.498;32.260;2022-12-07T01:13:53;-1.60;99.90
45319;DHT22;31057;48.498;32.260;2022-12-07T01:16:00;-1.70;99.90
45319;DHT22;31057;48.498;32.260;2022-12-07T01:18:02;-1.50;99.90
45319;DHT22;31057;48.498;32.260;2022-12-07T01:20:08;-1.60;99.90
45319;DHT22;31057;48.498;32.260;2022-12-07T01:22:10;-1.60;99.90
45319;DHT22;31057;48.498;32.260;2022-12-07T01:24:12;-1.60;99.90
45319;DHT22;31057;48.498;32.260;2022-12-07T01:26:18;-1.60;99.90
45319;DHT22;31057;48.498;32.260;2022-12-07T01:28:23;-1.60;99.90
45319;DHT22;31057;48.498;32.260;2022-12-07T01:30:25;-1.70;99.90
45319;DHT22;31057;48.498;32.260;2022-12-07T01:32:28;-1.60;99.90
45319;DHT22;31057;48.498;32.260;2022-12-07T01:34:31;-1.60;99.90
45319;DHT22;31057;48.498;32.260;2022-12-07T01:36:35;-1.70;99.90
45319;DHT22;31057;48.498;32.260;2022-12-07T01:38:37;-1.70;99.90
45319;DHT22;31057;48.498;32.260;2022-12-07T01:40:38;-1.70;99.90
45319;DHT22;31057;48.498;32.260;2022-12-07T01:42:40;-1.70;99.90
45319;DHT22;31057;48.498;32.260;2022-12-07T01:47:21;-1.60;99.90
45319;DHT22;31057;48.498;32.260;2022-12-07T01:49:33;-1.70;99.90
45319;DHT22;31057;48.498;32.260;2022-12-07T01:51:37;-1.80;99.90
45319;DHT22;31057;48.498;32.260;2022-12-07T01:53:43;-1.90;99.90
45319;DHT22;31057;48.498;32.260;2022-12-07T01:55:49;-1.90;99.90
45319;DHT22;31057;48.498;32.260;2022-12-07T01:57:54;-1.90;99.90
45319;DHT22;31057;48.498;32.260;2022-12-07T01:59:59;-1.90;99.90
45319;DHT22;31057;48.498;32.260;2022-12-07T02:02:05;-1.90;99.90
45319;DHT22;31057;48.498;32.260;2022-12-07T04:14:00;-2.30;99.90
45319;DHT22;31057;48.498;32.260;2022-12-07T04:16:20;-2.20;99.90
45319;DHT22;31057;48.498;32.260;2022-12-07T04:18:22;-2.30;99.90
45319;DHT22;31057;48.498;32.260;2022-12-07T04:20:24;-2.20;99.90
45319;DHT22;31057;48.498;32.260;2022-12-07T04:22:26;-2.20;99.90
45319;DHT22;31057;48.498;32.260;2022-12-07T04:24:28;-2.20;99.90
45319;DHT22;31057;48.498;32.260;2022-12-07T04:26:30;-2.20;99.90
45319;DHT22;31057;48.498;32.260;2022-12-07T04:28:32;-2.20;99.90
45319;DHT22;31057;48.498;32.260;2022-12-07T04:30:34;-2.30;99.90
45319;DHT22;31057;48.498;32.260;2022-12-07T04:32:36;-2.30;99.90
45319;DHT22;31057;48.498;32.260;2022-12-07T04:34:38;-2.30;99.90
45319;DHT22;31057;48.498;32.260;2022-12-07T04:36:40;-2.30;99.90
45319;DHT22;31057;48.498;32.260;2022-12-07T04:38:42;-2.30;99.90
45319;DHT22;31057;48.498;32.260;2022-12-07T04:40:44;-2.30;99.90
45319;DHT22;31057;48.498;32.260;2022-12-07T04:42:46;-2.30;99.90
45319;DHT22;31057;48.498;32.260;2022-12-07T04:44:48;-2.30;99.90
45319;DHT22;31057;48.498;32.260;2022-12-07T04:46:50;-2.30;99.90
45319;DHT22;31057;48.498;32.260;2022-12-07T04:48:53;-2.30;99.90
45319;DHT22;31057;48.498;32.260;2022-12-07T04:50:55;-2.30;99.90
45319;DHT22;31057;48.498;32.260;2022-12-07T04:52:57;-2.40;99.90
45319;DHT22;31057;48.498;32.260;2022-12-07T04:54:59;-2.30;99.90
45319;DHT22;31057;48.498;32.260;2022-12-07T04:57:00;-2.30;99.90
45319;DHT22;31057;48.498;32.260;2022-12-07T04:59:02;-2.30;99.90
45319;DHT22;31057;48.498;32.260;2022-12-07T05:01:05;-2.30;99.90
45319;DHT22;31057;48.498;32.260;2022-12-07T05:03:07;-2.40;99.90
45319;DHT22;31057;48.498;32.260;2022-12-07T05:05:08;-2.30;99.90
45319;DHT22;31057;48.498;32.260;2022-12-07T05:07:10;-2.30;99.90
45319;DHT22;31057;48.498;32.260;2022-12-07T05:09:12;-2.30;99.90
45319;DHT22;31057;48.498;32.260;2022-12-07T05:11:15;-2.30;99.90
45319;DHT22;31057;48.498;32.260;2022-12-07T05:13:36;-2.30;99.90
45319;DHT22;31057;48.498;32.260;2022-12-07T05:15:38;-2.30;99.90
45319;DHT22;31057;48.498;32.260;2022-12-07T05:17:40;-2.30;99.90
45319;DHT22;31057;48.498;32.260;2022-12-07T05:19:42;-2.30;99.90
45319;DHT22;31057;48.498;32.260;2022-12-07T05:21:45;-2.30;99.90
45319;DHT22;31057;48.498;32.260;2022-12-07T05:23:47;-2.30;99.90
45319;DHT22;31057;48.498;32.260;2022-12-07T05:25:49;-2.30;99.90
45319;DHT22;31057;48.498;32.260;2022-12-07T05:27:51;-2.30;99.90
45319;DHT22;31057;48.498;32.260;2022-12-07T05:29:53;-2.30;99.90
45319;DHT22;31057;48.498;32.260;2022-12-07T05:31:55;-2.30;99.90
45319;DHT22;31057;48.498;32.260;2022-12-07T05:33:56;-2.30;99.90
45319;DHT22;31057;48.498;32.260;2022-12-07T05:35:58;-2.30;99.90
45319;DHT22;31057;48.498;32.260;2022-12-07T05:38:00;-2.30;99.90
45319;DHT22;31057;48.498;32.260;2022-12-07T05:40:03;-2.30;99.90
45319;DHT22;31057;48.498;32.260;2022-12-07T05:42:06;-2.30;99.90
45319;DHT22;31057;48.498;32.260;2022-12-07T05:44:13;-2.30;99.90
45319;DHT22;31057;48.498;32.260;2022-12-07T05:46:15;-2.40;99.90
45319;DHT22;31057;48.498;32.260;2022-12-07T05:48:17;-2.40;99.90
45319;DHT22;31057;48.498;32.260;2022-12-07T05:50:19;-2.30;99.90
45319;DHT22;31057;48.498;32.260;2022-12-07T05:52:22;-2.30;99.90
45319;DHT22;31057;48.498;32.260;2022-12-07T05:54:25;-2.30;99.90
45319;DHT22;31057;48.498;32.260;2022-12-07T05:56:27;-2.30;99.90
45319;DHT22;31057;48.498;32.260;2022-12-07T05:58:29;-2.30;99.90
45319;DHT22;31057;48.498;32.260;2022-12-07T06:00:49;-2.30;99.90
45319;DHT22;31057;48.498;32.260;2022-12-07T08:17:21;-1.60;99.90
45319;DHT22;31057;48.498;32.260;2022-12-07T08:19:23;-1.60;99.90
45319;DHT22;31057;48.498;32.260;2022-12-07T08:21:25;-1.50;99.90
45319;DHT22;31057;48.498;32.260;2022-12-07T08:23:28;-1.50;99.90
45319;DHT22;31057;48.498;32.260;2022-12-07T08:25:39;-1.50;99.90
45319;DHT22;31057;48.498;32.260;2022-12-07T08:27:41;-1.50;99.90
45319;DHT22;31057;48.498;32.260;2022-12-07T08:29:43;-1.40;99.90
45319;DHT22;31057;48.498;32.260;2022-12-07T08:31:45;-1.40;99.90
45319;DHT22;31057;48.498;32.260;2022-12-07T08:33:47;-1.40;99.90
45319;DHT22;31057;48.498;32.260;2022-12-07T08:35:49;-1.40;99.90
45319;DHT22;31057;48.498;32.260;2022-12-07T08:37:51;-1.40;99.90
45319;DHT22;31057;48.498;32.260;2022-12-07T08:39:53;-1.20;99.90
45319;DHT22;31057;48.498;32.260;2022-12-07T08:41:55;-1.20;99.90
45319;DHT22;31057;48.498;32.260;2022-12-07T08:44:00;-1.20;99.90
45319;DHT22;31057;48.498;32.260;2022-12-07T08:48:20;-1.40;99.90
45319;DHT22;31057;48.498;32.260;2022-12-07T08:50:26;-1.30;99.90
45319;DHT22;31057;48.498;32.260;2022-12-07T08:52:28;-1.30;99.90
45319;DHT22;31057;48.498;32.260;2022-12-07T08:54:33;-1.30;99.90
45319;DHT22;31057;48.498;32.260;2022-12-07T08:56:37;-1.20;99.90
45319;DHT22;31057;48.498;32.260;2022-12-07T08:58:40;-1.20;99.90
45319;DHT22;31057;48.498;32.260;2022-12-07T09:00:42;-1.30;99.90
45319;DHT22;31057;48.498;32.260;2022-12-07T09:02:44;-1.30;99.90
45319;DHT22;31057;48.498;32.260;2022-12-07T09:04:47;-1.30;99.90
45319;DHT22;31057;48.498;32.260;2022-12-07T09:06:48;-1.30;99.90
45319;DHT22;31057;48.498;32.260;2022-12-07T09:08:54;-1.30;99.90
45319;DHT22;31057;48.498;32.260;2022-12-07T09:10:58;-1.40;99.90
45319;DHT22;31057;48.498;32.260;2022-12-07T09:12:59;-1.30;99.90
45319;DHT22;31057;48.498;32.260;2022-12-07T09:15:02;-1.30;99.90
45319;DHT22;31057;48.498;32.260;2022-12-07T09:17:09;-1.30;99.90
45319;DHT22;31057;48.498;32.260;2022-12-07T09:19:11;-1.30;99.90
45319;DHT22;31057;48.498;32.260;2022-12-07T09:21:13;-1.30;99.90
45319;DHT22;31057;48.498;32.260;2022-12-07T09:23:15;-1.20;99.90
45319;DHT22;31057;48.498;32.260;2022-12-07T09:25:17;-1.30;99.90
45319;DHT22;31057;48.498;32.260;2022-12-07T09:27:19;-1.20;99.90
45319;DHT22;31057;48.498;32.260;2022-12-07T09:29:21;-1.10;99.90
45319;DHT22;31057;48.498;32.260;2022-12-07T09:31:25;-1.20;99.90
45319;DHT22;31057;48.498;32.260;2022-12-07T09:33:44;-1.20;99.90
45319;DHT22;31057;48.498;32.260;2022-12-07T09:35:47;-1.20;99.90
45319;DHT22;31057;48.498;32.260;2022-12-07T09:37:49;-1.10;99.90
45319;DHT22;31057;48.498;32.260;2022-12-07T09:39:51;-1.10;99.90
45319;DHT22;31057;48.498;32.260;2022-12-07T09:41:53;-1.10;99.90
45319;DHT22;31057;48.498;32.260;2022-12-07T09:44:09;-0.90;99.90
45319;DHT22;31057;48.498;32.260;2022-12-07T09:46:14;-1.00;99.90
45319;DHT22;31057;48.498;32.260;2022-12-07T09:48:21;-0.90;99.90
45319;DHT22;31057;48.498;32.260;2022-12-07T09:50:26;-0.80;99.90
45319;DHT22;31057;48.498;32.260;2022-12-07T09:52:29;-0.90;99.90
45319;DHT22;31057;48.498;32.260;2022-12-07T09:54:42;-0.90;99.90
45319;DHT22;31057;48.498;32.260;2022-12-07T09:56:45;-1.00;99.90
45319;DHT22;31057;48.498;32.260;2022-12-07T09:58:47;-1.00;99.90
45319;DHT22;31057;48.498;32.260;2022-12-07T12:14:46;-0.90;99.90
45319;DHT22;31057;48.498;32.260;2022-12-07T12:22:20;-0.60;99.90
45319;DHT22;31057;48.498;32.260;2022-12-07T12:24:27;-0.80;99.90
45319;DHT22;31057;48.498;32.260;2022-12-07T12:26:33;-0.80;99.90
45319;DHT22;31057;48.498;32.260;2022-12-07T12:29:02;-0.90;99.90
45319;DHT22;31057;48.498;32.260;2022-12-07T12:31:38;-0.90;99.90
45319;DHT22;31057;48.498;32.260;2022-12-07T12:34:01;-0.90;99.90
45319;DHT22;31057;48.498;32.260;2022-12-07T12:38:31;-0.80;99.90
45319;DHT22;31057;48.498;32.260;2022-12-07T12:40:39;-1.00;99.90
45319;DHT22;31057;48.498;32.260;2022-12-07T12:42:55;-0.90;99.90
45319;DHT22;31057;48.498;32.260;2022-12-07T12:45:17;-1.00;99.90
45319;DHT22;31057;48.498;32.260;2022-12-07T12:47:42;-1.00;99.90
45319;DHT22;31057;48.498;32.260;2022-12-07T12:54:34;-1.00;99.90
45319;DHT22;31057;48.498;32.260;2022-12-07T13:01:40;-0.90;99.90
45319;DHT22;31057;48.498;32.260;2022-12-07T13:03:53;-1.00;99.90
45319;DHT22;31057;48.498;32.260;2022-12-07T13:08:22;-1.00;99.90
45319;DHT22;31057;48.498;32.260;2022-12-07T13:10:42;-1.00;99.90
45319;DHT22;31057;48.498;32.260;2022-12-07T13:15:48;-1.00;99.90
45319;DHT22;31057;48.498;32.260;2022-12-07T13:17:58;-1.00;99.90
45319;DHT22;31057;48.498;32.260;2022-12-07T13:20:05;-1.00;99.90
45319;DHT22;31057;48.498;32.260;2022-12-07T13:24:32;-1.10;99.90
45319;DHT22;31057;48.498;32.260;2022-12-07T13:26:37;-1.10;99.90
45319;DHT22;31057;48.498;32.260;2022-12-07T13:28:45;-1.10;99.90
45319;DHT22;31057;48.498;32.260;2022-12-07T13:32:58;-0.90;99.90
45319;DHT22;31057;48.498;32.260;2022-12-07T13:37:33;-1.00;99.90
45319;DHT22;31057;48.498;32.260;2022-12-07T13:41:59;-1.10;99.90
45319;DHT22;31057;48.498;32.260;2022-12-07T13:44:09;-1.00;99.90
45319;DHT22;31057;48.498;32.260;2022-12-07T13:46:12;-0.90;99.90
45319;DHT22;31057;48.498;32.260;2022-12-07T13:50:35;-0.90;99.90
45319;DHT22;31057;48.498;32.260;2022-12-07T13:52:43;-0.90;99.90
45319;DHT22;31057;48.498;32.260;2022-12-07T13:55:14;-1.00;99.90
45319;DHT22;31057;48.498;32.260;2022-12-07T13:57:17;-1.00;99.90
45319;DHT22;31057;48.498;32.260;2022-12-07T13:59:23;-1.00;99.90
45319;DHT22;31057;48.498;32.260;2022-12-07T16:14:48;-1.00;99.90
45319;DHT22;31057;48.498;32.260;2022-12-07T16:16:50;-1.00;99.90
45319;DHT22;31057;48.498;32.260;2022-12-07T16:18:52;-0.90;99.90
45319;DHT22;31057;48.498;32.260;2022-12-07T16:20:54;-0.90;99.90
45319;DHT22;31057;48.498;32.260;2022-12-07T16:22:56;-1.00;99.90
45319;DHT22;31057;48.498;32.260;2022-12-07T16:24:58;-1.10;99.90
45319;DHT22;31057;48.498;32.260;2022-12-07T16:27:01;-1.00;99.90
45319;DHT22;31057;48.498;32.260;2022-12-07T16:29:02;-1.00;99.90
45319;DHT22;31057;48.498;32.260;2022-12-07T16:31:13;-1.00;99.90
45319;DHT22;31057;48.498;32.260;2022-12-07T16:33:16;-0.90;99.90
45319;DHT22;31057;48.498;32.260;2022-12-07T16:35:18;-0.90;99.90
45319;DHT22;31057;48.498;32.260;2022-12-07T16:37:20;-0.90;99.90
45319;DHT22;31057;48.498;32.260;2022-12-07T16:39:22;-0.90;99.90
45319;DHT22;31057;48.498;32.260;2022-12-07T16:41:31;-1.00;99.90
45319;DHT22;31057;48.498;32.260;2022-12-07T16:43:34;-1.00;99.90
45319;DHT22;31057;48.498;32.260;2022-12-07T16:45:36;-1.00;99.90
45319;DHT22;31057;48.498;32.260;2022-12-07T16:47:39;-1.00;99.90
45319;DHT22;31057;48.498;32.260;2022-12-07T16:49:42;-1.10;99.90
45319;DHT22;31057;48.498;32.260;2022-12-07T16:51:44;-0.90;99.90
45319;DHT22;31057;48.498;32.260;2022-12-07T16:53:46;-0.90;99.90
45319;DHT22;31057;48.498;32.260;2022-12-07T16:55:49;-0.90;99.90
45319;DHT22;31057;48.498;32.260;2022-12-07T16:57:58;-1.00;99.90
45319;DHT22;31057;48.498;32.260;2022-12-07T17:00:00;-1.00;99.90
45319;DHT22;31057;48.498;32.260;2022-12-07T17:02:02;-1.00;99.90
45319;DHT22;31057;48.498;32.260;2022-12-07T17:04:06;-1.00;99.90
45319;DHT22;31057;48.498;32.260;2022-12-07T17:06:26;-1.00;99.90
45319;DHT22;31057;48.498;32.260;2022-12-07T17:08:29;-0.90;99.90
45319;DHT22;31057;48.498;32.260;2022-12-07T17:10:33;-0.90;99.90
45319;DHT22;31057;48.498;32.260;2022-12-07T17:12:37;-0.90;99.90
45319;DHT22;31057;48.498;32.260;2022-12-07T17:14:44;-0.60;99.90
45319;DHT22;31057;48.498;32.260;2022-12-07T17:17:08;-0.70;99.90
45319;DHT22;31057;48.498;32.260;2022-12-07T17:19:11;-0.90;99.90
45319;DHT22;31057;48.498;32.260;2022-12-07T17:21:14;-1.00;99.90
45319;DHT22;31057;48.498;32.260;2022-12-07T17:23:15;-1.00;99.90
45319;DHT22;31057;48.498;32.260;2022-12-07T17:25:18;-1.10;99.90
45319;DHT22;31057;48.498;32.260;2022-12-07T17:27:20;-1.00;99.90
45319;DHT22;31057;48.498;32.260;2022-12-07T17:29:22;-0.90;99.90
45319;DHT22;31057;48.498;32.260;2022-12-07T17:31:24;-0.90;99.90
45319;DHT22;31057;48.498;32.260;2022-12-07T17:33:26;-0.80;99.90
45319;DHT22;31057;48.498;32.260;2022-12-07T17:35:28;-0.90;99.90
45319;DHT22;31057;48.498;32.260;2022-12-07T17:37:31;-1.00;99.90
45319;DHT22;31057;48.498;32.260;2022-12-07T17:39:34;-1.00;99.90
45319;DHT22;31057;48.498;32.260;2022-12-07T17:41:36;-1.00;99.90
45319;DHT22;31057;48.498;32.260;2022-12-07T17:43:56;-1.00;99.90
45319;DHT22;31057;48.498;32.260;2022-12-07T17:46:08;-1.00;99.90
45319;DHT22;31057;48.498;32.260;2022-12-07T17:48:11;-0.90;99.90
45319;DHT22;31057;48.498;32.260;2022-12-07T17:50:13;-0.70;99.90
45319;DHT22;31057;48.498;32.260;2022-12-07T17:52:15;-0.70;99.90
45319;DHT22;31057;48.498;32.260;2022-12-07T17:54:36;-0.90;99.90
45319;DHT22;31057;48.498;32.260;2022-12-07T17:56:38;-1.00;99.90
45319;DHT22;31057;48.498;32.260;2022-12-07T17:58:40;-1.00;99.90
45319;DHT22;31057;48.498;32.260;2022-12-07T18:00:42;-1.00;99.90
45319;DHT22;31057;48.498;32.260;2022-12-07T18:02:44;-1.10;99.90
45319;DHT22;31057;48.498;32.260;2022-12-07T18:04:47;-0.90;99.90
45319;DHT22;31057;48.498;32.260;2022-12-07T18:06:54;-0.80;99.90
45319;DHT22;31057;48.498;32.260;2022-12-07T18:08:56;-0.90;99.90
45319;DHT22;31057;48.498;32.260;2022-12-07T18:10:59;-0.80;99.90
45319;DHT22;31057;48.498;32.260;2022-12-07T18:13:16;-0.80;99.90
45319;DHT22;31057;48.498;32.260;2022-12-07T18:15:40;-0.80;99.90
45319;DHT22;31057;48.498;32.260;2022-12-07T18:17:42;-0.90;99.90
45319;DHT22;31057;48.498;32.260;2022-12-07T18:19:44;-0.80;99.90
45319;DHT22;31057;48.498;32.260;2022-12-07T18:21:47;-0.80;99.90
45319;DHT22;31057;48.498;32.260;2022-12-07T18:23:53;-0.70;99.90
45319;DHT22;31057;48.498;32.260;2022-12-07T18:39:45;-0.90;99.90
45319;DHT22;31057;48.498;32.260;2022-12-07T18:41:47;-0.70;99.90
45319;DHT22;31057;48.498;32.260;2022-12-07T18:43:50;-0.80;99.90
45319;DHT22;31057;48.498;32.260;2022-12-07T18:45:53;-0.80;99.90
45319;DHT22;31057;48.498;32.260;2022-12-07T18:47:58;-0.90;99.90
45319;DHT22;31057;48.498;32.260;2022-12-07T18:50:00;-0.90;99.90
45319;DHT22;31057;48.498;32.260;2022-12-07T18:52:02;-0.90;99.90
45319;DHT22;31057;48.498;32.260;2022-12-07T18:54:04;-0.80;99.90
45319;DHT22;31057;48.498;32.260;2022-12-07T18:56:16;-0.90;99.90
45319;DHT22;31057;48.498;32.260;2022-12-07T18:58:19;-0.80;99.90
45319;DHT22;31057;48.498;32.260;2022-12-07T19:00:22;-0.90;99.90
45319;DHT22;31057;48.498;32.260;2022-12-07T19:02:24;-0.80;99.90
45319;DHT22;31057;48.498;32.260;2022-12-07T19:04:26;-0.80;99.90
45319;DHT22;31057;48.498;32.260;2022-12-07T19:06:29;-0.80;99.90
45319;DHT22;31057;48.498;32.260;2022-12-07T19:08:31;-0.90;99.90
45319;DHT22;31057;48.498;32.260;2022-12-07T19:10:35;-0.90;99.90
45319;DHT22;31057;48.498;32.260;2022-12-07T19:12:37;-0.80;99.90
45319;DHT22;31057;48.498;32.260;2022-12-07T19:14:40;-0.60;99.90
45319;DHT22;31057;48.498;32.260;2022-12-07T19:16:43;-0.70;99.90
45319;DHT22;31057;48.498;32.260;2022-12-07T19:18:46;-0.80;99.90
45319;DHT22;31057;48.498;32.260;2022-12-07T19:20:51;-0.80;99.90
45319;DHT22;31057;48.498;32.260;2022-12-07T19:22:53;-0.80;99.90
45319;DHT22;31057;48.498;32.260;2022-12-07T19:24:56;-0.80;99.90
45319;DHT22;31057;48.498;32.260;2022-12-07T19:27:00;-0.80;99.90
45319;DHT22;31057;48.498;32.260;2022-12-07T19:29:04;-0.70;99.90
45319;DHT22;31057;48.498;32.260;2022-12-07T19:31:08;-0.70;99.90
45319;DHT22;31057;48.498;32.260;2022-12-07T19:33:16;-0.70;99.90
45319;DHT22;31057;48.498;32.260;2022-12-07T19:35:20;-0.80;99.90
45319;DHT22;31057;48.498;32.260;2022-12-07T19:37:22;-0.80;99.90
45319;DHT22;31057;48.498;32.260;2022-12-07T19:39:24;-0.90;99.90
45319;DHT22;31057;48.498;32.260;2022-12-07T19:41:26;-0.90;99.90
45319;DHT22;31057;48.498;32.260;2022-12-07T19:43:38;-0.80;99.90
45319;DHT22;31057;48.498;32.260;2022-12-07T19:45:41;-0.70;99.90
45319;DHT22;31057;48.498;32.260;2022-12-07T19:47:43;-0.70;99.90
45319;DHT22;31057;48.498;32.260;2022-12-07T19:49:45;-0.80;99.90
45319;DHT22;31057;48.498;32.260;2022-12-07T19:51:49;-0.80;99.90
45319;DHT22;31057;48.498;32.260;2022-12-07T19:53:52;-0.60;99.90
45319;DHT22;31057;48.498;32.260;2022-12-07T19:55:54;-0.60;99.90
45319;DHT22;31057;48.498;32.260;2022-12-07T19:57:56;-0.80;99.90
45319;DHT22;31057;48.498;32.260;2022-12-07T19:59:57;-0.80;99.90
45319;DHT22;31057;48.498;32.260;2022-12-07T20:02:00;-0.80;99.90
45319;DHT22;31057;48.498;32.260;2022-12-07T20:04:04;-0.70;99.90
45319;DHT22;31057;48.498;32.260;2022-12-07T20:06:12;-0.60;99.90
45319;DHT22;31057;48.498;32.260;2022-12-07T20:08:14;-0.60;99.90
45319;DHT22;31057;48.498;32.260;2022-12-07T20:10:16;-0.60;99.90
45319;DHT22;31057;48.498;32.260;2022-12-07T20:12:26;-0.70;99.90
45319;DHT22;31057;48.498;32.260;2022-12-07T20:14:47;-0.70;99.90
45319;DHT22;31057;48.498;32.260;2022-12-07T20:16:50;-0.70;99.90
45319;DHT22;31057;48.498;32.260;2022-12-07T20:18:52;-0.70;99.90
45319;DHT22;31057;48.498;32.260;2022-12-07T20:20:58;-0.60;99.90
45319;DHT22;31057;48.498;32.260;2022-12-07T20:23:00;-0.70;99.90
45319;DHT22;31057;48.498;32.260;2022-12-07T20:25:02;-0.60;99.90
45319;DHT22;31057;48.498;32.260;2022-12-07T20:27:05;-0.60;99.90
45319;DHT22;31057;48.498;32.260;2022-12-07T20:29:09;-0.50;99.90
45319;DHT22;31057;48.498;32.260;2022-12-07T20:31:18;-0.30;99.90
45319;DHT22;31057;48.498;32.260;2022-12-07T20:33:21;-0.50;99.90
45319;DHT22;31057;48.498;32.260;2022-12-07T20:35:23;-0.50;99.90
45319;DHT22;31057;48.498;32.260;2022-12-07T20:37:25;-0.60;99.90
45319;DHT22;31057;48.498;32.260;2022-12-07T20:39:27;-0.60;99.90
45319;DHT22;31057;48.498;32.260;2022-12-07T20:41:29;-0.60;99.90
45319;DHT22;31057;48.498;32.260;2022-12-07T20:43:50;-0.60;99.90
45319;DHT22;31057;48.498;32.260;2022-12-07T20:45:52;-0.60;99.90
45319;DHT22;31057;48.498;32.260;2022-12-07T20:47:54;-0.20;99.90
45319;DHT22;31057;48.498;32.260;2022-12-07T20:49:55;-0.40;99.90
45319;DHT22;31057;48.498;32.260;2022-12-07T20:51:57;-0.50;99.90
45319;DHT22;31057;48.498;32.260;2022-12-07T20:54:00;-0.50;99.90
45319;DHT22;31057;48.498;32.260;2022-12-07T20:56:02;-0.50;99.90
45319;DHT22;31057;48.498;32.260;2022-12-07T20:58:05;-0.60;99.90
45319;DHT22;31057;48.498;32.260;2022-12-07T21:00:10;-0.60;99.90
45319;DHT22;31057;48.498;32.260;2022-12-07T21:02:13;-0.40;99.90
45319;DHT22;31057;48.498;32.260;2022-12-07T21:04:15;-0.20;99.90
45319;DHT22;31057;48.498;32.260;2022-12-07T21:06:18;-0.20;99.90
45319;DHT22;31057;48.498;32.260;2022-12-07T21:08:20;-0.20;99.90
45319;DHT22;31057;48.498;32.260;2022-12-07T21:10:23;-0.40;99.90
45319;DHT22;31057;48.498;32.260;2022-12-07T21:12:24;-0.30;99.90
45319;DHT22;31057;48.498;32.260;2022-12-07T21:14:26;-0.40;99.90
45319;DHT22;31057;48.498;32.260;2022-12-07T21:16:29;-0.30;99.90
45319;DHT22;31057;48.498;32.260;2022-12-07T21:18:30;-0.30;99.90
45319;DHT22;31057;48.498;32.260;2022-12-07T21:20:32;-0.10;99.90
45319;DHT22;31057;48.498;32.260;2022-12-07T21:22:35;0.00;99.90
45319;DHT22;31057;48.498;32.260;2022-12-07T21:24:37;0.10;99.90
45319;DHT22;31057;48.498;32.260;2022-12-07T21:26:40;0.00;99.90
45319;DHT22;31057;48.498;32.260;2022-12-07T21:28:42;-0.20;99.90
45319;DHT22;31057;48.498;32.260;2022-12-07T21:30:44;-0.30;99.90
45319;DHT22;31057;48.498;32.260;2022-12-07T21:33:06;-0.20;99.90
45319;DHT22;31057;48.498;32.260;2022-12-07T21:35:08;-0.30;99.90
45319;DHT22;31057;48.498;32.260;2022-12-07T21:37:11;-0.20;99.90
45319;DHT22;31057;48.498;32.260;2022-12-07T21:39:13;-0.10;99.90
45319;DHT22;31057;48.498;32.260;2022-12-07T21:41:16;-0.10;99.90
45319;DHT22;31057;48.498;32.260;2022-12-07T21:43:19;0.00;99.90
45319;DHT22;31057;48.498;32.260;2022-12-07T21:45:21;0.00;99.90
45319;DHT22;31057;48.498;32.260;2022-12-07T21:47:22;-0.20;99.90
45319;DHT22;31057;48.498;32.260;2022-12-07T21:49:25;-0.30;99.90
45319;DHT22;31057;48.498;32.260;2022-12-07T21:51:28;-0.20;99.90
45319;DHT22;31057;48.498;32.260;2022-12-07T21:53:30;-0.20;99.90
45319;DHT22;31057;48.498;32.260;2022-12-07T21:55:32;-0.10;99.90
45319;DHT22;31057;48.498;32.260;2022-12-07T21:57:34;-0.10;99.90
45319;DHT22;31057;48.498;32.260;2022-12-07T21:59:37;-0.10;99.90
